Stations météo

réclame
Mon MeteoGroup
Aviano Usaf, Italie (16037): Température de l'air & dewpoint: 15.10.2017 06:00:00 - 21.10.2017 06:00:00 (CEST)Aviano Usaf, Italie (16037): Vitesse du vent: 15.10.2017 06:00:00 - 21.10.2017 06:00:00 (CEST)Aviano Usaf, Italie (16037): Direction du vent: 15.10.2017 06:00:00 - 21.10.2017 06:00:00 (CEST)Aviano Usaf, Italie (16037): reduced air pressure: 15.10.2017 06:00:00 - 21.10.2017 06:00:00 (CEST)Aviano Usaf, Italie (16037): Quantités de précipitations: 15.10.2017 06:00:00 - 21.10.2017 06:00:00 (CEST)
Date & Time tt [°C] td [°C] ff [km/h] ff [knt] dd ppp [hPa] rr [mm]
21.10.2017 06:00:00 13,5 11,4 2 1 WSW 1020,7 -
21.10.2017 05:00:00 13,5 11,4 4 2 SW 1020,8 -
21.10.2017 04:00:00 13,6 11,5 2 1 SSW 1021,1 -
21.10.2017 03:00:00 13,6 11,5 0 0 N 1021,5 -
21.10.2017 02:00:00 13,7 11,4 4 2 W 1021,7 0,0
21.10.2017 01:00:00 13,7 11,4 4 2 S 1021,8 -
21.10.2017 00:00:00 13,8 11,3 0 0 N 1022,1 -
20.10.2017 23:00:00 14,2 11,7 2 1 N 1022,2 -
20.10.2017 22:00:00 14,1 11,4 2 1 SSW 1021,9 -
20.10.2017 21:00:00 14,3 11,4 2 1 ESE 1021,6 -
20.10.2017 20:00:00 14,3 11,2 0 0 N 1021,4 0,0
20.10.2017 19:00:00 14,6 10,6 2 1 SSE 1021,0 -
20.10.2017 18:00:00 15,2 11,0 0 0 N 1020,7 -
20.10.2017 17:00:00 15,4 11,0 0 0 N 1020,6 -
20.10.2017 16:00:00 15,1 10,7 2 1 ENE 1020,8 -
20.10.2017 15:00:00 15,1 10,9 2 1 ENE 1020,8 -
20.10.2017 14:00:00 14,8 10,6 8 4 E 1021,2 0,0
20.10.2017 13:00:00 13,9 10,5 5 3 SW 1021,4 -
20.10.2017 12:00:00 13,1 10,8 4 2 WSW 1021,4 -
20.10.2017 11:00:00 12,5 10,5 8 4 W 1021,2 -
20.10.2017 10:00:00 12,5 10,9 5 3 W 1021,1 -
20.10.2017 09:00:00 12,5 11,1 0 0 N 1020,5 -
20.10.2017 08:00:00 12,4 11,1 2 1 WNW 1019,8 0,0
20.10.2017 07:00:00 12,1 10,8 2 1 WSW 1019,7 -
20.10.2017 06:00:00 11,6 10,5 4 2 WSW 1019,6 -
20.10.2017 05:00:00 10,3 8,7 4 2 SW 1019,5 -
20.10.2017 04:00:00 9,4 7,7 2 1 W 1019,4 -
20.10.2017 03:00:00 9,6 7,9 4 2 W 1019,5 -
20.10.2017 02:00:00 9,3 7,0 4 2 SW 1019,5 0,0
20.10.2017 01:00:00 10,1 8,0 4 2 WSW 1019,6 -
20.10.2017 00:00:00 9,6 7,3 4 2 SW 1019,7 -
19.10.2017 23:00:00 10,8 8,9 4 2 WSW 1019,6 -
19.10.2017 22:00:00 11,1 8,8 5 3 WSW 1019,4 -
19.10.2017 21:00:00 12,5 9,7 0 0 N 1019,3 -
19.10.2017 20:00:00 13,3 10,6 2 1 E 1019,1 0,0
19.10.2017 19:00:00 15,0 11,4 5 3 NE 1018,8 -
19.10.2017 18:00:00 16,6 11,5 2 1 NE 1018,3 -
19.10.2017 17:00:00 17,7 11,7 5 3 NNE 1018,2 -
19.10.2017 16:00:00 17,8 11,5 4 2 NNW 1018,3 -
19.10.2017 15:00:00 18,0 11,3 2 1 NNE 1018,6 -
19.10.2017 14:00:00 17,9 11,4 5 3 ENE 1019,1 0,0
19.10.2017 13:00:00 16,8 11,3 0 0 N 1019,8 -
19.10.2017 12:00:00 15,8 11,5 4 2 E 1020,1 -
19.10.2017 11:00:00 14,1 11,2 4 2 E 1020,1 -
19.10.2017 10:00:00 13,4 10,7 4 2 NW 1020,0 -
19.10.2017 09:00:00 12,8 10,8 2 1 NW 1019,3 -
19.10.2017 08:00:00 12,7 11,1 0 0 N 1019,0 0,0
19.10.2017 07:00:00 12,1 10,5 2 1 SSW 1018,9 -
19.10.2017 06:00:00 11,4 9,6 2 1 S 1019,1 -
19.10.2017 05:00:00 10,5 8,4 4 2 SW 1019,1 -
19.10.2017 04:00:00 12,0 9,9 5 3 W 1018,9 -
19.10.2017 03:00:00 12,7 11,3 2 1 NE 1019,4 -
19.10.2017 02:00:00 12,0 10,7 0 0 N 1019,7 0,0
19.10.2017 01:00:00 10,7 8,8 2 1 SSW 1019,7 -
19.10.2017 00:00:00 11,0 8,5 2 1 S 1019,7 -
18.10.2017 23:00:00 11,2 9,1 0 0 N 1019,5 -
18.10.2017 22:00:00 11,4 8,9 4 2 SW 1019,4 -
18.10.2017 21:00:00 13,5 11,7 4 2 ESE 1019,1 -
18.10.2017 20:00:00 14,4 12,8 4 2 SSE 1019,1 0,0
18.10.2017 19:00:00 14,5 12,3 2 1 ENE 1018,9 -
18.10.2017 18:00:00 15,8 12,8 5 3 NE 1018,7 -
18.10.2017 17:00:00 17,2 13,0 8 4 NNE 1018,6 -
18.10.2017 16:00:00 18,1 13,3 5 3 NNE 1018,5 -
18.10.2017 15:00:00 18,3 12,9 2 1 NNW 1018,8 -
18.10.2017 14:00:00 17,5 13,3 9 5 N 1019,6 0,0
18.10.2017 13:00:00 16,7 13,2 5 3 NNW 1020,4 -
18.10.2017 12:00:00 15,8 12,5 5 3 NNW 1020,8 -
18.10.2017 11:00:00 14,2 12,7 5 3 N 1020,9 -
18.10.2017 10:00:00 11,8 11,0 0 0 N 1021,3 -
18.10.2017 09:00:00 10,0 8,9 4 2 W 1021,2 -
18.10.2017 08:00:00 10,2 8,9 4 2 SW 1020,8 0,0
18.10.2017 07:00:00 10,5 8,7 4 2 SSE 1021,0 -
18.10.2017 06:00:00 10,5 8,6 2 1 W 1021,1 -
18.10.2017 05:00:00 10,5 7,7 8 4 WSW 1021,3 -
18.10.2017 04:00:00 11,8 9,0 2 1 NNW 1021,8 -
18.10.2017 03:00:00 11,7 7,9 9 5 WSW 1021,9 -
18.10.2017 02:00:00 11,7 8,9 4 2 W 1022,4 0,0
18.10.2017 01:00:00 12,5 9,5 5 3 SSW 1022,6 -
18.10.2017 00:00:00 13,2 10,7 8 4 W 1023,0 -
17.10.2017 23:00:00 14,8 12,8 4 2 WNW 1023,1 -
17.10.2017 22:00:00 14,6 11,7 8 4 WSW 1023,1 -
17.10.2017 21:00:00 15,9 12,6 5 3 W 1023,2 -
17.10.2017 20:00:00 16,0 11,3 13 7 WSW 1023,1 0,0
17.10.2017 19:00:00 19,1 11,1 4 2 S 1023,1 -
17.10.2017 18:00:00 21,7 12,2 4 2 N 1023,1 -
17.10.2017 17:00:00 23,9 12,5 4 2 N 1023,0 -
17.10.2017 16:00:00 24,0 13,2 4 2 NE 1023,3 -
17.10.2017 15:00:00 23,4 13,2 8 4 E 1023,8 -
17.10.2017 14:00:00 22,7 13,1 8 4 NE 1024,8 0,0
17.10.2017 13:00:00 21,6 13,2 8 4 ENE 1025,5 -
17.10.2017 12:00:00 20,2 12,4 11 6 E 1026,0 -
17.10.2017 11:00:00 19,0 12,0 5 3 ENE 1026,0 -
17.10.2017 10:00:00 15,8 12,7 0 0 N 1026,4 -
17.10.2017 09:00:00 12,0 9,7 4 2 SSW 1026,5 -
17.10.2017 08:00:00 9,9 7,1 2 1 SSE 1026,2 0,0
17.10.2017 07:00:00 10,0 6,7 5 3 SW 1025,9 -
17.10.2017 06:00:00 10,8 7,8 4 2 SW 1026,0 -
17.10.2017 05:00:00 11,1 7,7 5 3 SW 1026,2 -
17.10.2017 04:00:00 10,7 7,7 8 4 SSW 1026,6 -
17.10.2017 03:00:00 10,3 7,1 8 4 SW 1027,0 -
17.10.2017 02:00:00 10,4 6,7 4 2 SW 1027,3 0,0
17.10.2017 01:00:00 11,8 7,7 2 1 S 1027,3 -
17.10.2017 00:00:00 12,5 8,5 4 2 W 1027,4 -
16.10.2017 23:00:00 12,8 8,0 11 6 WSW 1027,3 -
16.10.2017 22:00:00 13,9 8,3 11 6 WSW 1027,0 -
16.10.2017 21:00:00 14,7 9,2 11 6 WSW 1026,9 -
16.10.2017 20:00:00 15,9 9,3 9 5 SW 1026,7 0,0
16.10.2017 19:00:00 19,9 10,3 5 3 SSW 1026,4 -
16.10.2017 18:00:00 23,9 11,5 2 1 NNE 1025,9 -
16.10.2017 17:00:00 25,1 12,3 4 2 ENE 1026,0 -
16.10.2017 16:00:00 25,2 12,1 5 3 NE 1026,1 -
16.10.2017 15:00:00 24,8 12,4 9 5 NE 1026,4 -
16.10.2017 14:00:00 24,2 13,9 8 4 ENE 1026,8 0,0
16.10.2017 13:00:00 23,0 13,4 4 2 ENE 1027,5 -
16.10.2017 12:00:00 21,3 13,1 4 2 ENE 1027,9 -
16.10.2017 11:00:00 19,8 12,8 4 2 NE 1028,0 -
16.10.2017 10:00:00 17,7 12,5 0 0 N 1027,8 -
16.10.2017 09:00:00 12,4 10,3 5 3 SW 1027,8 -
16.10.2017 08:00:00 9,5 6,7 8 4 SW 1027,5 0,0
16.10.2017 07:00:00 10,4 7,4 8 4 WSW 1027,1 -
16.10.2017 06:00:00 9,9 6,9 8 4 SW 1027,3 -
16.10.2017 05:00:00 9,8 6,3 8 4 SW 1027,4 -
16.10.2017 04:00:00 10,3 6,6 8 4 SSW 1027,5 -
16.10.2017 03:00:00 11,5 7,8 4 2 SSW 1027,9 -
16.10.2017 02:00:00 11,4 7,5 4 2 SSW 1028,0 0,0
16.10.2017 01:00:00 11,6 7,1 4 2 SSW 1028,1 -
16.10.2017 00:00:00 12,2 7,5 11 6 WSW 1028,3 -
15.10.2017 23:00:00 12,5 8,1 8 4 SW 1028,1 -
15.10.2017 22:00:00 13,6 8,8 9 5 WSW 1027,8 -
15.10.2017 21:00:00 14,1 9,5 9 5 WSW 1027,8 -
15.10.2017 20:00:00 15,8 10,5 9 5 SW 1027,6 0,0
15.10.2017 19:00:00 20,2 11,1 5 3 SSE 1026,9 -
15.10.2017 18:00:00 23,4 11,1 5 3 ENE 1026,5 -
15.10.2017 17:00:00 24,8 11,7 2 1 NE 1026,6 -
15.10.2017 16:00:00 24,7 11,6 5 3 ENE 1026,9 -
15.10.2017 15:00:00 24,1 12,9 4 2 N 1027,3 -
15.10.2017 14:00:00 23,4 13,5 5 3 NNE 1027,9 0,0
15.10.2017 13:00:00 21,9 13,4 8 4 E 1028,5 -
15.10.2017 12:00:00 20,4 13,3 8 4 ENE 1028,9 -
15.10.2017 11:00:00 18,4 13,0 4 2 ENE 1029,0 -
15.10.2017 10:00:00 16,7 13,5 4 2 ENE 1029,1 -
15.10.2017 09:00:00 12,3 10,5 4 2 SW 1029,1 -
15.10.2017 08:00:00 9,6 6,8 5 3 SW 1028,9 0,0
15.10.2017 07:00:00 10,3 7,3 5 3 SW 1028,6 -
15.10.2017 06:00:00 10,7 7,9 5 3 SW 1028,3 -

tt = Température de l'air
td = dewpoint
ff = Vitesse du vent
dd = Direction du vent
ppp = reduced air pressure
rr = Quantités de précipitations

stations d'obs. à proximité